Wednesday, October 1, 2014, 10:14 AM EDT

KDYL, Doylestown Airport

Location: Doylestown, PA, United States Lat: 40.333
Local Time: 10:14 AM EDT (14:14 GMT) Lon: -75.117
Time Zone: US/Eastern Elev: 393 ft

Show me the last for .
Show Decoded

2014-10-01 09:54 METAR KDYL 011354Z AUTO 01008KT 10SM OVC016 18/14 A3005 RMK AO2 SLP173 T01830144
                 =
2014-10-01 09:28 METAR KDYL 011328Z AUTO 03005KT 10SM BKN016 17/14 A3004 RMK AO2 T01720139 =
2014-10-01 08:54 METAR KDYL 011254Z AUTO 03005KT 10SM FEW013 17/14 A3003 RMK AO2 SLP168 T01670139
                 =
2014-10-01 07:54 METAR KDYL 011154Z AUTO 02003KT 10SM CLR 15/14 A3002 RMK AO2 SLP163 T01500139
                 10156 20144 53011 =
2014-10-01 07:12 METAR KDYL 011112Z AUTO 03004KT 10SM SCT011 14/14 A3001 RMK AO2 T01440139 =
2014-10-01 06:54 METAR KDYL 011054Z AUTO 03004KT 10SM BKN011 14/14 A3000 RMK AO2 SLP157 T01440139
                 =
2014-10-01 06:03 METAR KDYL 011003Z AUTO VRB03KT 10SM BKN011 14/14 A2999 RMK AO2 T01440144 =
2014-10-01 05:54 METAR KDYL 010954Z AUTO 03003KT 10SM SCT011 14/14 A2999 RMK AO2 SLP153 T01440139
                 =
2014-10-01 04:54 METAR KDYL 010854Z AUTO 03003KT 10SM FEW120 14/14 A2998 RMK AO2 SLP151 T01440144
                 55004 =
2014-10-01 03:54 METAR KDYL 010754Z AUTO 01004KT 10SM OVC070 16/14 A2998 RMK AO2 SLP149 T01560144
                 =
2014-10-01 02:54 METAR KDYL 010654Z AUTO 02003KT 10SM SCT027 OVC070 16/14 A2999 RMK AO2 SLP152
                 T01560144 =
2014-10-01 01:54 METAR KDYL 010554Z AUTO 00000KT 10SM OVC026 16/15 A2999 RMK AO2 SLP153 T01560150
                 10178 20150 53008 =
2014-10-01 00:54 METAR KDYL 010454Z AUTO 04003KT 10SM FEW013 OVC025 16/15 A2998 RMK AO2 SLP150
                 T01560150 402560139 =
2014-10-01 00:22 METAR KDYL 010422Z AUTO 00000KT 10SM OVC016 16/15 A2998 RMK AO2 T01560150 =
2014-10-01 00:13 METAR KDYL 010413Z AUTO 00000KT 10SM BKN014 OVC110 16/15 A2998 RMK AO2 T01560150
                 =
2014-09-30 23:54 METAR KDYL 010354Z AUTO 00000KT 10SM SCT013 OVC110 15/14 A2998 RMK AO2 SLP148
                 T01500144 =
2014-09-30 22:54 METAR KDYL 010254Z AUTO 00000KT 10SM SCT110 16/14 A2997 RMK AO2 SLP146 T01560144
                 51010 =
2014-09-30 21:54 METAR KDYL 010154Z AUTO 00000KT 10SM FEW110 16/15 A2997 RMK AO2 SLP146 T01610150
                 =
2014-09-30 20:54 METAR KDYL 010054Z AUTO 00000KT 10SM CLR 17/14 A2996 RMK AO2 SLP144 T01670144 =
2014-09-30 19:54 METAR KDYL 302354Z AUTO 00000KT 10SM CLR 18/14 A2994 RMK AO2 SLP137 T01780144
                 10256 20178 53016 =
2014-09-30 18:54 METAR KDYL 302254Z AUTO 00000KT 10SM CLR 18/14 A2992 RMK AO2 SLP129 T01830144 =
2014-09-30 17:54 METAR KDYL 302154Z AUTO 00000KT 10SM CLR 20/14 A2991 RMK AO2 SLP125 T02000144 =
2014-09-30 16:54 METAR KDYL 302054Z AUTO VRB03KT 10SM BKN060 22/12 A2989 RMK AO2 SLP120 T02220122
                 56005 =
2014-09-30 15:54 METAR KDYL 301954Z AUTO 00000KT 10SM BKN060 23/11 A2990 RMK AO2 SLP121 T02330111
                 =
2014-09-30 14:54 METAR KDYL 301854Z AUTO VRB04KT 10SM SCT050 24/12 A2990 RMK AO2 SLP121 T02390117
                 =
2014-09-30 13:54 METAR KDYL 301754Z AUTO VRB05KT 10SM FEW050 25/11 A2991 RMK AO2 SLP124 T02500111
                 10250 20150 58012 =
2014-09-30 12:54 METAR KDYL 301654Z AUTO 00000KT 10SM CLR 23/11 A2993 RMK AO2 SLP130 T02330111 =
2014-09-30 11:54 METAR KDYL 301554Z AUTO 05003KT 10SM FEW031 FEW070 22/11 A2994 RMK AO2 SLP135
                 T02170111 =
2014-09-30 10:54 METAR KDYL 301454Z AUTO 00000KT 10SM CLR 21/15 A2994 RMK AO2 SLP137 T02110150
                 58002 =

Support USWX by starting your Amazon purchase here.